Messwerte Oceanside, Camp Pendleton North

Temperatur

Temperatur
°C
1593630000 12.00 12.00 20
1593633600 13.00 13.00 21
1593637200 14.00 14.00 22
1593640800 15.00 15.00 22
1593644400 16.00 16.00 23
1593648000 17.00 17.00 23
1593651600 18.00 18.00 22
1593655200 19.00 19.00 21
1593658800 20.00 20.00 19
1593662400 21.00 21.00 18
1593666000 22.00 22.00 19
1593669600 23.00 23.00 19
1593673200 0.00 0.00 19
1593676800 1.00 1.00 18
1593680400 2.00 2.00 19
1593684000 3.00 3.00 18
1593687600 4.00 4.00 18
1593691200 5.00 5.00 18
1593694800 6.00 6.00 18
1593698400 7.00 7.00
1593702000 8.00 8.00 18
1593705600 9.00 9.00 18
1593709200 10.00 10.00 19
1593712800 11.00 11.00 22

Aktuellste Messwerte

Wettercharakter
Wetter: freundlich
Temperatur
24 °C
Feuchtigkeit
55 %
Wind
5 km/hWindrichtung: West
Luftdruck
1014 hPa
Messzeit: 2. Juli 2020, 12.00Datenquelle: METAR

Weitere Messstationen in der Nähe

Messstation Temperatur Entfernung
Oceanside 23 °C 9 km
Carlsbad 21 °C 20 km
Ramona 24 °C 50 km
San Diego-Miramar 24 °C 57 km
San Diego 24 °C 57 km
Santa Ana 23 °C 63 km
El Cajon 27 °C 64 km

Wind

Windrichtung Böen Mittelwind
° km/h km/h
1593630000 12.00 11.00 - 12.00 210° 10
1593633600 13.00 12.00 - 13.00 250° 15
1593637200 14.00 13.00 - 14.00 260° 15
1593640800 15.00 14.00 - 15.00 250° 10
1593644400 16.00 15.00 - 16.00 250° 15
1593648000 17.00 16.00 - 17.00 240° 20
1593651600 18.00 17.00 - 18.00 230° 15
1593655200 19.00 18.00 - 19.00 230° 10
1593658800 20.00 19.00 - 20.00 230° 5
1593662400 21.00 20.00 - 21.00 210° 5
1593666000 22.00 21.00 - 22.00 0
1593669600 23.00 22.00 - 23.00 0
1593673200 0.00 23.00 - 0.00 150° 5
1593676800 1.00 0.00 - 1.00 0
1593680400 2.00 1.00 - 2.00 0
1593684000 3.00 2.00 - 3.00 0
1593687600 4.00 3.00 - 4.00
1593691200 5.00 4.00 - 5.00 0
1593694800 6.00 5.00 - 6.00 0
1593698400 7.00 6.00 - 7.00
1593702000 8.00 7.00 - 8.00 0
1593705600 9.00 8.00 - 9.00 0
1593709200 10.00 9.00 - 10.00 5
1593712800 11.00 10.00 - 11.00 140° 5

Ihre Wetterstation

Fehlt Ihre Wetterstation auf unserem Portal?

Schreiben Sie an network@meteonews.ch

Klima

Wann ist es am wärmsten? Wann regnet es am wenigsten? Unsere Klimadaten geben Auskunft.